sensor_id;sensor_type;location;lat;lon;timestamp;pressure;altitude;pressure_sealevel;temperature;humidity
26937;BME280;14495;48.116;11.676;2022-11-09T00:02:19;95358.78;;;8.97;100.00
26937;BME280;14495;48.116;11.676;2022-11-09T00:04:44;95357.25;;;8.64;100.00
26937;BME280;14495;48.116;11.676;2022-11-09T00:07:09;95353.88;;;8.62;100.00
26937;BME280;14495;48.116;11.676;2022-11-09T00:09:34;95350.25;;;8.34;100.00
26937;BME280;14495;48.116;11.676;2022-11-09T00:12:00;95353.97;;;8.30;100.00
26937;BME280;14495;48.116;11.676;2022-11-09T00:14:29;95346.91;;;8.32;100.00
26937;BME280;14495;48.116;11.676;2022-11-09T00:16:55;95350.63;;;8.28;100.00
26937;BME280;14495;48.116;11.676;2022-11-09T00:19:21;95349.28;;;8.21;100.00
26937;BME280;14495;48.116;11.676;2022-11-09T00:21:46;95349.00;;;8.25;100.00
26937;BME280;14495;48.116;11.676;2022-11-09T00:24:11;95349.94;;;8.40;100.00
26937;BME280;14495;48.116;11.676;2022-11-09T00:26:37;95356.22;;;8.81;100.00
26937;BME280;14495;48.116;11.676;2022-11-09T00:29:02;95356.34;;;8.94;100.00
26937;BME280;14495;48.116;11.676;2022-11-09T00:31:27;95355.97;;;9.14;100.00
26937;BME280;14495;48.116;11.676;2022-11-09T00:33:54;95355.63;;;9.06;100.00
26937;BME280;14495;48.116;11.676;2022-11-09T00:36:21;95352.06;;;8.93;100.00
26937;BME280;14495;48.116;11.676;2022-11-09T00:38:52;95344.91;;;8.82;100.00
26937;BME280;14495;48.116;11.676;2022-11-09T00:41:18;95349.72;;;8.59;100.00
26937;BME280;14495;48.116;11.676;2022-11-09T00:43:44;95344.97;;;8.51;100.00
26937;BME280;14495;48.116;11.676;2022-11-09T00:46:10;95345.50;;;8.57;100.00
26937;BME280;14495;48.116;11.676;2022-11-09T00:48:35;95346.03;;;8.47;100.00
26937;BME280;14495;48.116;11.676;2022-11-09T00:51:01;95344.97;;;8.66;100.00
26937;BME280;14495;48.116;11.676;2022-11-09T00:53:27;95338.78;;;8.83;100.00
26937;BME280;14495;48.116;11.676;2022-11-09T00:56:12;95331.31;;;8.91;100.00
26937;BME280;14495;48.116;11.676;2022-11-09T00:58:38;95335.31;;;8.82;100.00
26937;BME280;14495;48.116;11.676;2022-11-09T01:01:12;95332.88;;;8.94;100.00
26937;BME280;14495;48.116;11.676;2022-11-09T01:03:38;95333.34;;;8.86;100.00
26937;BME280;14495;48.116;11.676;2022-11-09T01:06:04;95337.59;;;8.58;100.00
26937;BME280;14495;48.116;11.676;2022-11-09T01:08:31;95339.47;;;7.80;100.00
26937;BME280;14495;48.116;11.676;2022-11-09T01:10:56;95341.81;;;7.84;100.00
26937;BME280;14495;48.116;11.676;2022-11-09T01:13:22;95352.06;;;7.71;100.00
26937;BME280;14495;48.116;11.676;2022-11-09T01:15:50;95344.84;;;7.45;100.00
26937;BME280;14495;48.116;11.676;2022-11-09T01:18:19;95338.13;;;7.57;100.00
26937;BME280;14495;48.116;11.676;2022-11-09T01:20:47;95336.94;;;7.78;100.00
26937;BME280;14495;48.116;11.676;2022-11-09T01:23:14;95342.72;;;8.29;100.00
26937;BME280;14495;48.116;11.676;2022-11-09T01:25:40;95330.66;;;8.73;100.00
26937;BME280;14495;48.116;11.676;2022-11-09T01:28:06;95335.25;;;7.93;100.00
26937;BME280;14495;48.116;11.676;2022-11-09T01:30:36;95342.47;;;7.88;100.00
26937;BME280;14495;48.116;11.676;2022-11-09T01:33:06;95337.69;;;7.96;100.00
26937;BME280;14495;48.116;11.676;2022-11-09T01:35:34;95330.16;;;8.22;100.00
26937;BME280;14495;48.116;11.676;2022-11-09T01:38:01;95326.91;;;8.77;100.00
26937;BME280;14495;48.116;11.676;2022-11-09T01:40:28;95331.78;;;8.98;100.00
26937;BME280;14495;48.116;11.676;2022-11-09T01:42:53;95330.34;;;8.49;100.00
26937;BME280;14495;48.116;11.676;2022-11-09T01:45:24;95322.66;;;8.76;100.00
26937;BME280;14495;48.116;11.676;2022-11-09T01:47:55;95333.25;;;7.98;100.00
26937;BME280;14495;48.116;11.676;2022-11-09T01:50:34;95341.66;;;7.71;100.00
26937;BME280;14495;48.116;11.676;2022-11-09T01:53:02;95333.53;;;7.78;100.00
26937;BME280;14495;48.116;11.676;2022-11-09T01:55:29;95324.84;;;7.77;100.00
26937;BME280;14495;48.116;11.676;2022-11-09T01:58:00;95333.59;;;7.76;100.00
26937;BME280;14495;48.116;11.676;2022-11-09T02:00:27;95329.13;;;7.94;100.00
26937;BME280;14495;48.116;11.676;2022-11-09T02:02:58;95329.06;;;7.80;100.00
26937;BME280;14495;48.116;11.676;2022-11-09T02:05:27;95329.22;;;7.77;100.00
26937;BME280;14495;48.116;11.676;2022-11-09T02:07:54;95328.75;;;7.54;100.00
26937;BME280;14495;48.116;11.676;2022-11-09T02:10:28;95325.88;;;7.74;100.00
26937;BME280;14495;48.116;11.676;2022-11-09T02:12:56;95323.88;;;7.80;100.00
26937;BME280;14495;48.116;11.676;2022-11-09T02:15:23;95320.09;;;7.85;100.00
26937;BME280;14495;48.116;11.676;2022-11-09T02:17:51;95318.50;;;8.13;100.00
26937;BME280;14495;48.116;11.676;2022-11-09T02:20:17;95315.78;;;8.00;100.00
26937;BME280;14495;48.116;11.676;2022-11-09T02:22:43;95315.09;;;7.66;100.00
26937;BME280;14495;48.116;11.676;2022-11-09T02:25:10;95316.81;;;7.66;100.00
26937;BME280;14495;48.116;11.676;2022-11-09T02:27:37;95319.94;;;7.57;100.00
26937;BME280;14495;48.116;11.676;2022-11-09T02:30:04;95319.22;;;7.39;100.00
26937;BME280;14495;48.116;11.676;2022-11-09T02:32:30;95321.03;;;7.21;100.00
26937;BME280;14495;48.116;11.676;2022-11-09T02:34:56;95314.56;;;7.60;100.00
26937;BME280;14495;48.116;11.676;2022-11-09T02:37:39;95318.75;;;7.62;100.00
26937;BME280;14495;48.116;11.676;2022-11-09T02:40:10;95316.34;;;7.43;100.00
26937;BME280;14495;48.116;11.676;2022-11-09T02:42:38;95309.97;;;7.65;100.00
26937;BME280;14495;48.116;11.676;2022-11-09T02:45:04;95305.94;;;8.05;100.00
26937;BME280;14495;48.116;11.676;2022-11-09T02:47:29;95300.47;;;8.10;100.00
26937;BME280;14495;48.116;11.676;2022-11-09T02:49:54;95314.44;;;7.93;100.00
26937;BME280;14495;48.116;11.676;2022-11-09T02:52:22;95315.25;;;8.09;100.00
26937;BME280;14495;48.116;11.676;2022-11-09T02:54:47;95313.69;;;7.91;100.00
26937;BME280;14495;48.116;11.676;2022-11-09T02:57:13;95314.38;;;7.79;100.00
26937;BME280;14495;48.116;11.676;2022-11-09T02:59:38;95307.03;;;8.01;100.00
26937;BME280;14495;48.116;11.676;2022-11-09T03:02:03;95313.91;;;8.02;100.00
26937;BME280;14495;48.116;11.676;2022-11-09T03:04:29;95323.44;;;8.18;100.00
26937;BME280;14495;48.116;11.676;2022-11-09T03:06:54;95328.56;;;7.89;100.00
26937;BME280;14495;48.116;11.676;2022-11-09T03:09:19;95323.81;;;8.11;100.00
26937;BME280;14495;48.116;11.676;2022-11-09T03:11:44;95325.00;;;7.90;100.00
26937;BME280;14495;48.116;11.676;2022-11-09T03:14:10;95323.03;;;7.63;100.00
26937;BME280;14495;48.116;11.676;2022-11-09T03:16:36;95324.34;;;7.86;100.00
26937;BME280;14495;48.116;11.676;2022-11-09T03:19:02;95313.88;;;8.48;100.00
26937;BME280;14495;48.116;11.676;2022-11-09T03:21:27;95308.47;;;8.21;100.00
26937;BME280;14495;48.116;11.676;2022-11-09T03:23:53;95311.00;;;8.23;100.00
26937;BME280;14495;48.116;11.676;2022-11-09T03:26:19;95312.97;;;8.49;100.00
26937;BME280;14495;48.116;11.676;2022-11-09T03:28:44;95317.38;;;8.33;100.00
26937;BME280;14495;48.116;11.676;2022-11-09T03:31:10;95317.59;;;8.44;100.00
26937;BME280;14495;48.116;11.676;2022-11-09T03:33:35;95318.09;;;8.65;100.00
26937;BME280;14495;48.116;11.676;2022-11-09T03:36:00;95303.66;;;9.03;100.00
26937;BME280;14495;48.116;11.676;2022-11-09T03:38:26;95310.88;;;8.10;100.00
26937;BME280;14495;48.116;11.676;2022-11-09T03:40:51;95321.81;;;8.31;100.00
26937;BME280;14495;48.116;11.676;2022-11-09T03:43:17;95317.72;;;7.97;100.00
26937;BME280;14495;48.116;11.676;2022-11-09T03:45:42;95319.25;;;7.85;100.00
26937;BME280;14495;48.116;11.676;2022-11-09T03:48:08;95314.09;;;7.99;100.00
26937;BME280;14495;48.116;11.676;2022-11-09T03:50:34;95322.69;;;7.85;100.00
26937;BME280;14495;48.116;11.676;2022-11-09T03:53:00;95316.97;;;7.94;100.00
26937;BME280;14495;48.116;11.676;2022-11-09T03:55:26;95316.47;;;7.88;100.00
26937;BME280;14495;48.116;11.676;2022-11-09T03:57:52;95317.34;;;8.03;100.00
26937;BME280;14495;48.116;11.676;2022-11-09T04:00:19;95316.06;;;8.10;100.00
26937;BME280;14495;48.116;11.676;2022-11-09T04:02:45;95316.59;;;8.01;100.00
26937;BME280;14495;48.116;11.676;2022-11-09T04:05:11;95319.66;;;7.93;100.00
26937;BME280;14495;48.116;11.676;2022-11-09T04:07:37;95306.34;;;7.98;100.00
26937;BME280;14495;48.116;11.676;2022-11-09T04:10:03;95307.69;;;8.05;100.00
26937;BME280;14495;48.116;11.676;2022-11-09T04:12:29;95316.38;;;8.20;100.00
26937;BME280;14495;48.116;11.676;2022-11-09T04:14:54;95314.19;;;8.28;100.00
26937;BME280;14495;48.116;11.676;2022-11-09T04:17:20;95306.72;;;7.91;100.00
26937;BME280;14495;48.116;11.676;2022-11-09T04:19:45;95308.06;;;7.83;100.00
26937;BME280;14495;48.116;11.676;2022-11-09T04:22:11;95310.94;;;7.94;100.00
26937;BME280;14495;48.116;11.676;2022-11-09T04:24:36;95304.03;;;7.93;100.00
26937;BME280;14495;48.116;11.676;2022-11-09T04:27:02;95308.31;;;7.94;100.00
26937;BME280;14495;48.116;11.676;2022-11-09T04:29:28;95304.88;;;8.24;100.00
26937;BME280;14495;48.116;11.676;2022-11-09T04:31:53;95300.59;;;8.23;100.00
26937;BME280;14495;48.116;11.676;2022-11-09T04:34:18;95305.91;;;8.36;100.00
26937;BME280;14495;48.116;11.676;2022-11-09T04:36:44;95301.78;;;8.47;100.00
26937;BME280;14495;48.116;11.676;2022-11-09T04:39:09;95310.34;;;8.19;100.00
26937;BME280;14495;48.116;11.676;2022-11-09T04:41:35;95310.84;;;8.26;100.00
26937;BME280;14495;48.116;11.676;2022-11-09T04:44:00;95313.91;;;8.02;100.00
26937;BME280;14495;48.116;11.676;2022-11-09T04:46:26;95319.75;;;8.36;100.00
26937;BME280;14495;48.116;11.676;2022-11-09T04:48:51;95320.81;;;8.93;100.00
26937;BME280;14495;48.116;11.676;2022-11-09T04:51:17;95324.91;;;8.07;100.00
26937;BME280;14495;48.116;11.676;2022-11-09T04:53:43;95327.31;;;7.80;100.00
26937;BME280;14495;48.116;11.676;2022-11-09T04:56:09;95327.22;;;7.82;100.00
26937;BME280;14495;48.116;11.676;2022-11-09T04:58:35;95312.63;;;8.70;100.00
26937;BME280;14495;48.116;11.676;2022-11-09T05:01:05;95325.22;;;7.55;100.00
26937;BME280;14495;48.116;11.676;2022-11-09T05:03:30;95325.06;;;7.58;100.00
26937;BME280;14495;48.116;11.676;2022-11-09T05:05:56;95332.25;;;7.53;100.00
26937;BME280;14495;48.116;11.676;2022-11-09T05:08:21;95322.97;;;7.49;100.00
26937;BME280;14495;48.116;11.676;2022-11-09T05:10:46;95330.25;;;7.58;100.00
26937;BME280;14495;48.116;11.676;2022-11-09T05:13:12;95327.56;;;7.76;100.00
26937;BME280;14495;48.116;11.676;2022-11-09T05:15:38;95330.84;;;7.63;100.00
26937;BME280;14495;48.116;11.676;2022-11-09T05:18:05;95325.06;;;7.58;100.00
26937;BME280;14495;48.116;11.676;2022-11-09T05:20:31;95323.94;;;7.62;100.00
26937;BME280;14495;48.116;11.676;2022-11-09T05:22:57;95328.25;;;7.63;100.00
26937;BME280;14495;48.116;11.676;2022-11-09T05:25:42;95326.22;;;7.52;100.00
26937;BME280;14495;48.116;11.676;2022-11-09T05:28:07;95336.44;;;7.71;100.00
26937;BME280;14495;48.116;11.676;2022-11-09T05:30:33;95333.59;;;7.60;100.00
26937;BME280;14495;48.116;11.676;2022-11-09T05:32:58;95335.09;;;7.64;100.00
26937;BME280;14495;48.116;11.676;2022-11-09T05:35:24;95342.97;;;7.79;100.00
26937;BME280;14495;48.116;11.676;2022-11-09T05:37:49;95331.50;;;7.51;100.00
26937;BME280;14495;48.116;11.676;2022-11-09T05:40:16;95332.09;;;7.40;100.00
26937;BME280;14495;48.116;11.676;2022-11-09T05:42:43;95330.59;;;7.20;100.00
26937;BME280;14495;48.116;11.676;2022-11-09T05:45:10;95326.72;;;7.27;100.00
26937;BME280;14495;48.116;11.676;2022-11-09T05:47:37;95330.72;;;7.01;100.00
26937;BME280;14495;48.116;11.676;2022-11-09T05:50:03;95327.75;;;7.09;100.00
26937;BME280;14495;48.116;11.676;2022-11-09T05:52:29;95325.66;;;7.31;100.00
26937;BME280;14495;48.116;11.676;2022-11-09T05:54:54;95329.59;;;7.39;100.00
26937;BME280;14495;48.116;11.676;2022-11-09T05:57:20;95325.47;;;7.34;100.00
26937;BME280;14495;48.116;11.676;2022-11-09T05:59:45;95330.09;;;7.45;100.00
26937;BME280;14495;48.116;11.676;2022-11-09T06:02:11;95324.53;;;7.67;100.00
26937;BME280;14495;48.116;11.676;2022-11-09T06:04:36;95328.31;;;7.62;100.00
26937;BME280;14495;48.116;11.676;2022-11-09T06:07:01;95335.78;;;7.68;100.00
26937;BME280;14495;48.116;11.676;2022-11-09T06:09:27;95335.44;;;7.58;100.00
26937;BME280;14495;48.116;11.676;2022-11-09T06:11:52;95333.75;;;7.89;100.00
26937;BME280;14495;48.116;11.676;2022-11-09T06:14:17;95332.06;;;7.88;100.00
26937;BME280;14495;48.116;11.676;2022-11-09T06:16:42;95336.34;;;7.89;100.00
26937;BME280;14495;48.116;11.676;2022-11-09T06:19:08;95341.31;;;7.78;100.00
26937;BME280;14495;48.116;11.676;2022-11-09T06:21:33;95342.41;;;8.20;100.00
26937;BME280;14495;48.116;11.676;2022-11-09T06:23:59;95356.09;;;7.61;100.00
26937;BME280;14495;48.116;11.676;2022-11-09T06:26:24;95354.09;;;7.66;100.00
26937;BME280;14495;48.116;11.676;2022-11-09T06:28:49;95356.69;;;7.66;100.00
26937;BME280;14495;48.116;11.676;2022-11-09T06:31:15;95359.28;;;7.66;100.00
26937;BME280;14495;48.116;11.676;2022-11-09T06:33:41;95365.97;;;8.02;100.00
26937;BME280;14495;48.116;11.676;2022-11-09T06:36:08;95370.75;;;8.40;100.00
26937;BME280;14495;48.116;11.676;2022-11-09T06:38:33;95369.88;;;8.56;100.00
26937;BME280;14495;48.116;11.676;2022-11-09T06:40:59;95368.44;;;8.80;100.00
26937;BME280;14495;48.116;11.676;2022-11-09T06:43:26;95372.66;;;8.83;100.00
26937;BME280;14495;48.116;11.676;2022-11-09T06:45:52;95374.59;;;9.08;100.00
26937;BME280;14495;48.116;11.676;2022-11-09T06:48:18;95383.81;;;9.28;100.00
26937;BME280;14495;48.116;11.676;2022-11-09T06:50:43;95396.78;;;9.29;100.00
26937;BME280;14495;48.116;11.676;2022-11-09T06:53:11;95410.72;;;9.28;100.00
26937;BME280;14495;48.116;11.676;2022-11-09T06:55:37;95423.03;;;9.41;100.00
26937;BME280;14495;48.116;11.676;2022-11-09T06:58:08;95434.47;;;9.53;100.00
26937;BME280;14495;48.116;11.676;2022-11-09T07:00:34;95439.50;;;9.70;100.00
26937;BME280;14495;48.116;11.676;2022-11-09T07:03:00;95442.13;;;9.56;100.00
26937;BME280;14495;48.116;11.676;2022-11-09T07:05:25;95449.41;;;11.78;82.25
26937;BME280;14495;48.116;11.676;2022-11-09T07:07:51;95465.28;;;9.60;100.00
26937;BME280;14495;48.116;11.676;2022-11-09T07:10:16;95465.41;;;9.59;100.00
26937;BME280;14495;48.116;11.676;2022-11-09T07:12:42;95474.41;;;10.11;99.58
26937;BME280;14495;48.116;11.676;2022-11-09T07:15:08;95466.50;;;10.39;93.38
26937;BME280;14495;48.116;11.676;2022-11-09T07:17:34;95478.91;;;10.21;92.86
26937;BME280;14495;48.116;11.676;2022-11-09T07:20:01;95490.00;;;10.25;91.72
26937;BME280;14495;48.116;11.676;2022-11-09T07:22:27;95487.06;;;10.02;92.77
26937;BME280;14495;48.116;11.676;2022-11-09T07:24:52;95485.91;;;10.21;89.68
26937;BME280;14495;48.116;11.676;2022-11-09T07:27:17;95482.28;;;10.23;88.95
26937;BME280;14495;48.116;11.676;2022-11-09T07:29:43;95485.84;;;10.37;85.00
26937;BME280;14495;48.116;11.676;2022-11-09T07:32:08;95481.41;;;10.52;82.88
26937;BME280;14495;48.116;11.676;2022-11-09T07:34:33;95480.22;;;10.29;84.68
26937;BME280;14495;48.116;11.676;2022-11-09T07:36:58;95483.00;;;10.40;82.45
26937;BME280;14495;48.116;11.676;2022-11-09T07:39:24;95478.75;;;10.66;79.58
26937;BME280;14495;48.116;11.676;2022-11-09T07:41:49;95463.56;;;10.71;80.44
26937;BME280;14495;48.116;11.676;2022-11-09T07:44:15;95465.63;;;10.53;81.64
26937;BME280;14495;48.116;11.676;2022-11-09T07:46:46;95473.72;;;11.03;79.33
26937;BME280;14495;48.116;11.676;2022-11-09T07:49:12;95464.28;;;11.00;87.18
26937;BME280;14495;48.116;11.676;2022-11-09T07:51:38;95471.50;;;11.10;86.40
26937;BME280;14495;48.116;11.676;2022-11-09T07:54:04;95469.72;;;11.10;81.27
26937;BME280;14495;48.116;11.676;2022-11-09T07:56:30;95471.44;;;11.24;86.89
26937;BME280;14495;48.116;11.676;2022-11-09T07:58:55;95460.75;;;11.14;88.42
26937;BME280;14495;48.116;11.676;2022-11-09T08:01:20;95467.09;;;11.10;85.99
26937;BME280;14495;48.116;11.676;2022-11-09T08:03:46;95475.59;;;11.27;79.61
26937;BME280;14495;48.116;11.676;2022-11-09T08:06:11;95471.81;;;11.31;77.37
26937;BME280;14495;48.116;11.676;2022-11-09T08:08:36;95474.25;;;11.72;72.99
26937;BME280;14495;48.116;11.676;2022-11-09T08:11:01;95479.88;;;11.15;74.20
26937;BME280;14495;48.116;11.676;2022-11-09T08:13:27;95474.03;;;11.75;72.60
26937;BME280;14495;48.116;11.676;2022-11-09T08:15:52;95478.03;;;11.68;71.69
26937;BME280;14495;48.116;11.676;2022-11-09T08:18:19;95486.41;;;12.23;67.66
26937;BME280;14495;48.116;11.676;2022-11-09T08:20:45;95484.50;;;12.62;66.74
26937;BME280;14495;48.116;11.676;2022-11-09T08:23:12;95490.75;;;12.96;66.15
26937;BME280;14495;48.116;11.676;2022-11-09T08:25:37;95481.78;;;13.92;65.74
26937;BME280;14495;48.116;11.676;2022-11-09T08:28:03;95478.13;;;14.50;60.71
26937;BME280;14495;48.116;11.676;2022-11-09T08:30:28;95476.63;;;14.02;62.25
26937;BME280;14495;48.116;11.676;2022-11-09T08:32:54;95476.16;;;14.08;61.24
26937;BME280;14495;48.116;11.676;2022-11-09T08:35:21;95474.69;;;14.38;60.83
26937;BME280;14495;48.116;11.676;2022-11-09T08:37:49;95483.19;;;13.85;61.26
26937;BME280;14495;48.116;11.676;2022-11-09T08:40:17;95488.03;;;13.45;62.91
26937;BME280;14495;48.116;11.676;2022-11-09T08:42:43;95490.97;;;12.93;64.53
26937;BME280;14495;48.116;11.676;2022-11-09T08:45:09;95487.34;;;13.65;64.06
26937;BME280;14495;48.116;11.676;2022-11-09T08:47:34;95479.50;;;14.10;61.12
26937;BME280;14495;48.116;11.676;2022-11-09T08:50:01;95486.03;;;14.82;59.27
26937;BME280;14495;48.116;11.676;2022-11-09T08:52:28;95498.13;;;15.59;56.90
26937;BME280;14495;48.116;11.676;2022-11-09T08:54:53;95487.22;;;15.22;56.83
26937;BME280;14495;48.116;11.676;2022-11-09T08:57:19;95495.94;;;15.43;56.68
26937;BME280;14495;48.116;11.676;2022-11-09T08:59:45;95498.75;;;15.10;57.62
26937;BME280;14495;48.116;11.676;2022-11-09T09:02:11;95495.81;;;15.24;56.30
26937;BME280;14495;48.116;11.676;2022-11-09T09:04:36;95492.81;;;14.96;57.21
26937;BME280;14495;48.116;11.676;2022-11-09T09:07:02;95503.47;;;14.95;56.70
26937;BME280;14495;48.116;11.676;2022-11-09T09:09:27;95505.41;;;15.14;57.59
26937;BME280;14495;48.116;11.676;2022-11-09T09:11:52;95505.63;;;14.89;58.16
26937;BME280;14495;48.116;11.676;2022-11-09T09:14:18;95502.09;;;15.12;57.96
26937;BME280;14495;48.116;11.676;2022-11-09T09:16:43;95508.84;;;15.25;59.58
26937;BME280;14495;48.116;11.676;2022-11-09T09:19:08;95504.53;;;15.03;58.43
26937;BME280;14495;48.116;11.676;2022-11-09T09:21:33;95503.41;;;14.85;58.24
26937;BME280;14495;48.116;11.676;2022-11-09T09:23:59;95506.31;;;14.48;59.17
26937;BME280;14495;48.116;11.676;2022-11-09T09:26:24;95514.22;;;14.48;59.14
26937;BME280;14495;48.116;11.676;2022-11-09T09:28:50;95516.03;;;14.36;58.24
26937;BME280;14495;48.116;11.676;2022-11-09T09:31:15;95509.63;;;14.73;59.22
26937;BME280;14495;48.116;11.676;2022-11-09T09:33:41;95517.03;;;14.90;58.52
26937;BME280;14495;48.116;11.676;2022-11-09T09:36:06;95515.38;;;14.78;59.13
26937;BME280;14495;48.116;11.676;2022-11-09T09:38:32;95522.72;;;14.95;59.96
26937;BME280;14495;48.116;11.676;2022-11-09T09:41:02;95517.38;;;15.18;60.07
26937;BME280;14495;48.116;11.676;2022-11-09T09:43:30;95512.47;;;15.45;60.14
26937;BME280;14495;48.116;11.676;2022-11-09T09:45:58;95508.66;;;15.38;59.63
26937;BME280;14495;48.116;11.676;2022-11-09T09:50:57;95512.44;;;15.24;59.24
26937;BME280;14495;48.116;11.676;2022-11-09T09:53:42;95509.19;;;15.00;60.24
26937;BME280;14495;48.116;11.676;2022-11-09T09:56:22;95517.34;;;14.97;61.17
26937;BME280;14495;48.116;11.676;2022-11-09T09:58:51;95503.59;;;14.93;62.78
26937;BME280;14495;48.116;11.676;2022-11-09T10:01:19;95506.69;;;14.98;63.12
26937;BME280;14495;48.116;11.676;2022-11-09T10:03:46;95507.00;;;14.73;64.20
26937;BME280;14495;48.116;11.676;2022-11-09T10:06:24;95502.88;;;14.91;63.81
26937;BME280;14495;48.116;11.676;2022-11-09T10:15:05;95508.53;;;15.82;61.15
26937;BME280;14495;48.116;11.676;2022-11-09T10:25:43;95504.97;;;16.64;57.07
26937;BME280;14495;48.116;11.676;2022-11-09T10:28:13;95500.22;;;16.58;56.74
26937;BME280;14495;48.116;11.676;2022-11-09T10:30:39;95504.56;;;16.18;57.70
26937;BME280;14495;48.116;11.676;2022-11-09T10:35:39;95492.03;;;16.11;58.36
26937;BME280;14495;48.116;11.676;2022-11-09T10:38:22;95488.44;;;15.81;58.65
26937;BME280;14495;48.116;11.676;2022-11-09T10:40:57;95488.59;;;16.10;58.01
26937;BME280;14495;48.116;11.676;2022-11-09T10:43:24;95491.03;;;16.02;59.82
26937;BME280;14495;48.116;11.676;2022-11-09T10:46:01;95492.25;;;15.98;58.79
26937;BME280;14495;48.116;11.676;2022-11-09T10:48:33;95491.34;;;16.09;58.93
26937;BME280;14495;48.116;11.676;2022-11-09T10:50:59;95475.72;;;16.27;59.12
26937;BME280;14495;48.116;11.676;2022-11-09T10:53:31;95482.19;;;16.73;58.07
26937;BME280;14495;48.116;11.676;2022-11-09T10:56:18;95457.09;;;17.27;59.92
26937;BME280;14495;48.116;11.676;2022-11-09T10:58:49;95464.78;;;17.77;59.38
26937;BME280;14495;48.116;11.676;2022-11-09T11:01:17;95460.91;;;17.72;59.85
26937;BME280;14495;48.116;11.676;2022-11-09T11:03:44;95453.53;;;18.13;56.72
26937;BME280;14495;48.116;11.676;2022-11-09T11:06:16;95462.63;;;19.02;53.00
26937;BME280;14495;48.116;11.676;2022-11-09T11:08:48;95461.81;;;20.16;50.82
26937;BME280;14495;48.116;11.676;2022-11-09T11:13:45;95449.22;;;24.54;42.61
26937;BME280;14495;48.116;11.676;2022-11-09T11:16:25;95447.28;;;24.99;40.04
26937;BME280;14495;48.116;11.676;2022-11-09T11:18:51;95445.41;;;25.36;38.34
26937;BME280;14495;48.116;11.676;2022-11-09T11:21:21;95439.66;;;26.17;37.33
26937;BME280;14495;48.116;11.676;2022-11-09T11:24:19;95440.91;;;25.00;37.86
26937;BME280;14495;48.116;11.676;2022-11-09T11:27:05;95429.09;;;24.73;37.82
26937;BME280;14495;48.116;11.676;2022-11-09T11:29:46;95428.97;;;23.85;39.52
26937;BME280;14495;48.116;11.676;2022-11-09T11:32:16;95423.09;;;25.51;37.17
26937;BME280;14495;48.116;11.676;2022-11-09T11:34:42;95419.00;;;24.39;37.51
26937;BME280;14495;48.116;11.676;2022-11-09T11:37:24;95416.88;;;25.72;36.84
26937;BME280;14495;48.116;11.676;2022-11-09T11:40:09;95417.91;;;24.33;37.44
26937;BME280;14495;48.116;11.676;2022-11-09T11:45:40;95423.31;;;23.04;39.05
26937;BME280;14495;48.116;11.676;2022-11-09T11:48:33;95428.13;;;22.07;40.45
26937;BME280;14495;48.116;11.676;2022-11-09T11:51:05;95423.63;;;22.78;40.44
26937;BME280;14495;48.116;11.676;2022-11-09T11:53:52;95428.66;;;21.94;42.08
26937;BME280;14495;48.116;11.676;2022-11-09T11:56:44;95420.38;;;23.75;39.64
26937;BME280;14495;48.116;11.676;2022-11-09T11:59:37;95417.88;;;24.63;38.40
26937;BME280;14495;48.116;11.676;2022-11-09T12:04:44;95406.81;;;25.24;37.04
26937;BME280;14495;48.116;11.676;2022-11-09T12:16:34;95389.81;;;23.48;39.12
26937;BME280;14495;48.116;11.676;2022-11-09T12:21:50;95387.28;;;22.62;41.09
26937;BME280;14495;48.116;11.676;2022-11-09T12:24:47;95389.72;;;21.93;42.17
26937;BME280;14495;48.116;11.676;2022-11-09T12:30:21;95387.31;;;21.67;42.42
26937;BME280;14495;48.116;11.676;2022-11-09T12:33:16;95390.84;;;21.26;44.26
26937;BME280;14495;48.116;11.676;2022-11-09T12:35:56;95384.19;;;21.63;43.65
26937;BME280;14495;48.116;11.676;2022-11-09T12:38:27;95386.53;;;20.76;45.17
26937;BME280;14495;48.116;11.676;2022-11-09T12:46:04;95391.69;;;19.84;47.29
26937;BME280;14495;48.116;11.676;2022-11-09T12:48:32;95390.28;;;19.19;47.69
26937;BME280;14495;48.116;11.676;2022-11-09T12:50:59;95381.22;;;19.04;48.93
26937;BME280;14495;48.116;11.676;2022-11-09T12:53:28;95382.66;;;19.16;48.57
26937;BME280;14495;48.116;11.676;2022-11-09T12:58:42;95368.47;;;19.51;48.33
26937;BME280;14495;48.116;11.676;2022-11-09T13:01:13;95369.16;;;19.54;48.94
26937;BME280;14495;48.116;11.676;2022-11-09T13:04:00;95364.31;;;19.23;49.49
26937;BME280;14495;48.116;11.676;2022-11-09T13:06:28;95367.59;;;19.43;49.88
26937;BME280;14495;48.116;11.676;2022-11-09T13:09:00;95362.50;;;19.49;50.38
26937;BME280;14495;48.116;11.676;2022-11-09T13:16:55;95370.34;;;19.07;51.50
26937;BME280;14495;48.116;11.676;2022-11-09T13:22:06;95363.78;;;19.19;51.41
26937;BME280;14495;48.116;11.676;2022-11-09T13:29:58;95360.06;;;18.68;51.95
26937;BME280;14495;48.116;11.676;2022-11-09T13:32:28;95356.69;;;18.93;53.62
26937;BME280;14495;48.116;11.676;2022-11-09T13:34:57;95351.97;;;18.51;53.39
26937;BME280;14495;48.116;11.676;2022-11-09T13:45:26;95350.75;;;19.52;52.63
26937;BME280;14495;48.116;11.676;2022-11-09T13:47:53;95350.97;;;19.33;52.90
26937;BME280;14495;48.116;11.676;2022-11-09T13:50:21;95352.19;;;18.94;52.57
26937;BME280;14495;48.116;11.676;2022-11-09T13:52:50;95349.25;;;18.97;53.13
26937;BME280;14495;48.116;11.676;2022-11-09T13:55:22;95358.72;;;18.00;54.23
26937;BME280;14495;48.116;11.676;2022-11-09T13:57:48;95345.25;;;17.66;56.10
26937;BME280;14495;48.116;11.676;2022-11-09T14:00:19;95352.03;;;18.24;56.05
26937;BME280;14495;48.116;11.676;2022-11-09T14:02:56;95361.19;;;17.74;56.07
26937;BME280;14495;48.116;11.676;2022-11-09T14:05:33;95366.19;;;17.67;57.89
26937;BME280;14495;48.116;11.676;2022-11-09T14:08:01;95368.56;;;17.70;59.08